createdAt,value
2022-11-18T00:01:47.661Z,25.35
2022-11-18T00:04:35.344Z,26.37
2022-11-18T00:07:24.433Z,32.55
2022-11-18T00:10:11.729Z,25.00
2022-11-18T00:13:17.500Z,31.20
2022-11-18T00:16:07.191Z,27.67
2022-11-18T00:18:54.540Z,23.12
2022-11-18T00:21:42.110Z,30.70
2022-11-18T00:24:29.482Z,40.48
2022-11-18T00:27:16.982Z,34.67
2022-11-18T00:30:04.335Z,36.42
2022-11-18T00:32:54.499Z,36.33
2022-11-18T00:35:41.979Z,65.32
2022-11-18T00:38:30.924Z,52.08
2022-11-18T00:41:18.219Z,35.73
2022-11-18T00:44:09.404Z,32.50
2022-11-18T00:46:54.603Z,35.90
2022-11-18T00:49:41.664Z,32.20
2022-11-18T00:52:29.218Z,34.50
2022-11-18T00:55:16.769Z,34.10
2022-11-18T00:58:03.682Z,36.73
2022-11-18T01:00:53.933Z,32.70
2022-11-18T01:03:41.470Z,45.48
2022-11-18T01:06:28.781Z,43.92
2022-11-18T01:09:16.289Z,49.75
2022-11-18T01:12:22.223Z,43.98
2022-11-18T01:15:09.872Z,38.48
2022-11-18T01:17:57.453Z,36.03
2022-11-18T01:20:45.574Z,38.63
2022-11-18T01:23:33.452Z,37.58
2022-11-18T01:26:21.672Z,37.10
2022-11-18T01:29:08.915Z,43.13
2022-11-18T01:32:22.848Z,38.92
2022-11-18T01:34:44.997Z,41.60
2022-11-18T01:37:32.400Z,45.15
2022-11-18T01:40:19.669Z,49.53
2022-11-18T01:43:16.211Z,51.30
2022-11-18T01:46:03.322Z,58.85
2022-11-18T01:48:56.524Z,66.37
2022-11-18T01:51:47.005Z,53.50
2022-11-18T01:54:37.557Z,66.60
2022-11-18T01:57:27.721Z,65.30
2022-11-18T02:00:15.732Z,58.40
2022-11-18T02:03:03.623Z,64.58
2022-11-18T02:05:53.192Z,70.08
2022-11-18T02:08:42.618Z,63.20
2022-11-18T02:11:48.970Z,69.10
2022-11-18T02:14:39.435Z,66.77
2022-11-18T02:17:44.878Z,67.78
2022-11-18T02:20:35.483Z,68.65
2022-11-18T02:23:40.699Z,63.05
2022-11-18T02:26:40.871Z,66.85
2022-11-18T02:29:36.993Z,73.05
2022-11-18T02:32:27.208Z,65.27
2022-11-18T02:35:21.094Z,66.60
2022-11-18T02:38:14.494Z,82.30
2022-11-18T02:41:04.866Z,84.20
2022-11-18T02:44:10.370Z,86.25
2022-11-18T02:47:01.230Z,91.70
2022-11-18T02:49:53.007Z,94.03
2022-11-18T02:52:41.519Z,91.15
2022-11-18T02:55:32.022Z,101.78
2022-11-18T02:58:27.547Z,92.05
2022-11-18T03:01:23.652Z,103.83
2022-11-18T03:04:10.981Z,97.60
2022-11-18T03:07:05.648Z,107.40
2022-11-18T03:09:58.105Z,110.68
2022-11-18T03:13:03.070Z,116.65
2022-11-18T03:15:59.293Z,110.20
2022-11-18T03:18:52.624Z,103.30
2022-11-18T03:21:45.611Z,101.22
2022-11-18T03:24:36.368Z,120.80
2022-11-18T03:27:26.674Z,115.32
2022-11-18T03:30:17.095Z,110.97
2022-11-18T03:33:07.401Z,99.52
2022-11-18T03:35:55.392Z,112.68
2022-11-18T03:38:45.700Z,111.75
2022-11-18T03:41:36.421Z,108.10
2022-11-18T03:44:26.676Z,107.97
2022-11-18T03:47:19.976Z,116.45
2022-11-18T03:50:10.248Z,113.75
2022-11-18T03:52:58.540Z,115.85
2022-11-18T03:55:49.393Z,103.72
2022-11-18T03:58:45.679Z,103.10
2022-11-18T04:01:36.485Z,96.42
2022-11-18T04:04:26.531Z,96.37
2022-11-18T04:07:38.160Z,82.00
2022-11-18T04:10:43.130Z,86.85
2022-11-18T04:13:34.006Z,106.70
2022-11-18T04:16:24.282Z,104.97
2022-11-18T04:19:11.733Z,87.78
2022-11-18T04:21:59.002Z,86.28
2022-11-18T04:24:46.628Z,91.32
2022-11-18T04:27:34.016Z,71.80
2022-11-18T04:30:24.233Z,81.60
2022-11-18T04:33:11.685Z,80.92
2022-11-18T04:35:58.879Z,72.20
2022-11-18T04:38:46.676Z,71.37
2022-11-18T04:41:51.656Z,69.72
2022-11-18T04:44:39.285Z,71.90
2022-11-18T04:47:26.868Z,73.35
2022-11-18T04:50:14.511Z,74.07
2022-11-18T04:53:01.627Z,78.70
2022-11-18T04:55:49.072Z,71.07
2022-11-18T04:58:36.222Z,69.15
2022-11-18T05:01:27.082Z,78.67
2022-11-18T05:04:16.452Z,71.75
2022-11-18T05:07:05.728Z,77.20
2022-11-18T05:09:54.271Z,79.90
2022-11-18T05:12:52.332Z,65.95
2022-11-18T05:15:39.549Z,77.45
2022-11-18T05:18:26.753Z,68.57
2022-11-18T05:21:14.154Z,68.15
2022-11-18T05:24:02.558Z,67.70
2022-11-18T05:26:49.725Z,66.33
2022-11-18T05:29:37.037Z,61.90
2022-11-18T05:32:24.290Z,67.67
2022-11-18T05:35:11.794Z,62.90
2022-11-18T05:37:59.057Z,65.32
2022-11-18T05:40:47.077Z,63.75
2022-11-18T05:43:35.446Z,55.05
2022-11-18T05:46:25.253Z,69.35
2022-11-18T05:49:12.658Z,72.55
2022-11-18T05:51:59.852Z,63.90
2022-11-18T05:54:53.097Z,65.10
2022-11-18T05:57:40.737Z,57.50
2022-11-18T06:00:28.616Z,65.15
2022-11-18T06:03:31.032Z,53.83
2022-11-18T06:06:23.862Z,53.13
2022-11-18T06:09:13.670Z,48.87
2022-11-18T06:12:03.951Z,51.30
2022-11-18T06:14:54.551Z,51.18
2022-11-18T06:17:45.432Z,51.37
2022-11-18T06:20:35.128Z,52.05
2022-11-18T06:23:23.540Z,50.70
2022-11-18T06:26:12.222Z,45.08
2022-11-18T06:29:00.068Z,44.00
2022-11-18T06:31:47.687Z,42.23
2022-11-18T06:34:41.002Z,43.98
2022-11-18T06:37:23.527Z,45.20
2022-11-18T06:40:11.949Z,43.60
2022-11-18T06:43:21.513Z,39.00
2022-11-18T06:46:29.594Z,37.93
2022-11-18T06:49:18.319Z,38.83
2022-11-18T06:52:05.676Z,35.50
2022-11-18T06:54:54.375Z,36.50
2022-11-18T06:57:41.868Z,33.88
2022-11-18T07:00:29.639Z,38.55
2022-11-18T07:03:17.544Z,37.33
2022-11-18T07:06:05.151Z,33.55
2022-11-18T07:08:54.297Z,37.30
2022-11-18T07:11:41.882Z,37.70
2022-11-18T07:14:29.345Z,37.28
2022-11-18T07:17:16.642Z,40.83
2022-11-18T07:20:04.868Z,36.85
2022-11-18T07:22:54.074Z,39.45
2022-11-18T07:25:45.302Z,35.45
2022-11-18T07:28:30.952Z,38.67
2022-11-18T07:31:21.127Z,35.55
2022-11-18T07:34:08.882Z,34.38
2022-11-18T07:36:56.198Z,39.05
2022-11-18T07:39:43.782Z,37.35
2022-11-18T07:42:32.628Z,31.65
2022-11-18T07:45:21.437Z,37.48
2022-11-18T07:48:08.680Z,39.18
2022-11-18T07:50:56.320Z,39.08
2022-11-18T07:53:44.073Z,32.05
2022-11-18T07:56:31.271Z,39.10
2022-11-18T07:59:19.246Z,35.33
2022-11-18T08:02:06.662Z,33.98
2022-11-18T08:04:54.198Z,42.30
2022-11-18T08:07:41.853Z,37.58
2022-11-18T08:10:29.546Z,44.18
2022-11-18T08:13:17.048Z,41.13
2022-11-18T08:16:05.349Z,35.25
2022-11-18T08:18:54.720Z,35.98
2022-11-18T08:21:42.398Z,39.92
2022-11-18T08:24:29.603Z,32.30
2022-11-18T08:27:17.506Z,35.28
2022-11-18T08:30:05.393Z,37.33
2022-11-18T08:32:54.447Z,37.48
2022-11-18T08:35:41.707Z,32.30
2022-11-18T08:38:29.482Z,39.78
2022-11-18T08:41:22.061Z,35.35
2022-11-18T08:44:10.867Z,35.38
2022-11-18T08:46:58.284Z,32.53
2022-11-18T08:49:48.409Z,36.65
2022-11-18T08:52:36.067Z,32.67
2022-11-18T08:55:23.638Z,32.63
2022-11-18T08:58:11.484Z,28.80
2022-11-18T09:00:59.076Z,32.38
2022-11-18T09:03:47.239Z,32.10
2022-11-18T09:06:34.951Z,36.80
2022-11-18T09:09:24.379Z,31.35
2022-11-18T09:12:13.383Z,28.12
2022-11-18T09:15:16.654Z,21.85
2022-11-18T09:17:49.477Z,26.12
2022-11-18T09:20:38.202Z,26.77
2022-11-18T09:23:25.956Z,19.30
2022-11-18T09:26:16.901Z,23.00
2022-11-18T09:29:04.583Z,18.57
2022-11-18T09:31:54.730Z,19.90
2022-11-18T09:34:43.456Z,18.20
2022-11-18T09:37:31.159Z,21.25
2022-11-18T09:40:19.432Z,29.65
2022-11-18T09:43:13.016Z,21.23
2022-11-18T09:46:03.583Z,13.78
2022-11-18T09:49:09.213Z,16.62
2022-11-18T09:51:57.810Z,13.60
2022-11-18T09:54:45.200Z,15.83
2022-11-18T09:57:38.495Z,10.93
2022-11-18T10:00:31.039Z,10.98
2022-11-18T10:03:33.797Z,10.50
2022-11-18T10:06:32.185Z,14.10
2022-11-18T10:09:28.829Z,14.98
2022-11-18T10:12:37.308Z,12.30
2022-11-18T10:15:27.578Z,11.50
2022-11-18T10:18:59.773Z,13.30
2022-11-18T10:21:36.900Z,11.80
2022-11-18T10:24:27.466Z,12.30
2022-11-18T10:27:16.959Z,12.68
2022-11-18T10:30:07.401Z,11.95
2022-11-18T10:33:06.994Z,13.65
2022-11-18T10:36:12.903Z,13.98
2022-11-18T10:39:17.096Z,13.20
2022-11-18T10:42:07.485Z,30.60
2022-11-18T10:44:54.912Z,25.20
2022-11-18T10:47:42.257Z,10.23
2022-11-18T10:50:38.884Z,12.23
2022-11-18T10:53:37.559Z,9.60
2022-11-18T10:56:25.983Z,9.00
2022-11-18T10:59:34.870Z,7.33
2022-11-18T11:02:29.996Z,11.85
2022-11-18T11:05:24.968Z,8.95
2022-11-18T11:08:37.642Z,8.35
2022-11-18T11:11:16.065Z,7.37
2022-11-18T11:14:43.926Z,9.55
2022-11-18T11:17:54.683Z,11.45
2022-11-18T11:20:42.204Z,11.90
2022-11-18T11:23:31.748Z,6.80
2022-11-18T11:29:36.256Z,6.15
2022-11-18T11:32:53.868Z,7.17
2022-11-18T11:35:51.432Z,7.47
2022-11-18T11:39:05.180Z,8.78
2022-11-18T11:42:22.120Z,7.90
2022-11-18T11:45:24.573Z,9.73
2022-11-18T11:48:18.282Z,5.65
2022-11-18T11:51:17.821Z,8.58
2022-11-18T11:54:11.098Z,7.72
2022-11-18T11:57:07.827Z,6.47
2022-11-18T12:00:04.655Z,5.47
2022-11-18T12:03:09.848Z,5.20
2022-11-18T12:05:57.007Z,7.37
2022-11-18T12:08:56.592Z,4.00
2022-11-18T12:11:52.051Z,4.42
2022-11-18T12:14:42.349Z,3.37
2022-11-18T12:17:34.346Z,3.72
2022-11-18T12:20:45.561Z,4.85
2022-11-18T12:23:34.756Z,3.10
2022-11-18T12:26:37.231Z,4.95
2022-11-18T12:29:27.584Z,4.83
2022-11-18T12:32:27.013Z,3.08
2022-11-18T12:35:22.280Z,2.83
2022-11-18T12:38:14.463Z,4.37
2022-11-18T12:41:02.999Z,3.08
2022-11-18T12:43:53.405Z,4.55
2022-11-18T12:46:49.504Z,2.98
2022-11-18T12:49:40.158Z,2.15
2022-11-18T12:52:36.202Z,5.25
2022-11-18T12:55:27.201Z,1.95
2022-11-18T12:58:25.086Z,3.70
2022-11-18T13:01:14.880Z,5.33
2022-11-18T13:04:14.678Z,7.00
2022-11-18T13:07:03.460Z,6.22
2022-11-18T13:09:54.582Z,3.42
2022-11-18T13:12:43.174Z,3.70
2022-11-18T13:15:48.276Z,5.28
2022-11-18T13:18:37.362Z,3.00
2022-11-18T13:21:45.603Z,5.12
2022-11-18T13:24:34.934Z,4.05
2022-11-18T13:27:49.629Z,6.25
2022-11-18T13:30:39.874Z,3.00
2022-11-18T13:33:27.723Z,2.47
2022-11-18T13:36:20.802Z,2.10
2022-11-18T13:39:10.082Z,2.55
2022-11-18T13:42:02.377Z,4.92
2022-11-18T13:44:57.571Z,3.45
2022-11-18T13:47:51.024Z,3.12
2022-11-18T13:50:46.051Z,3.77
2022-11-18T13:53:41.267Z,3.83
2022-11-18T13:56:35.087Z,2.90
2022-11-18T13:59:23.735Z,8.03
2022-11-18T14:02:14.319Z,2.42
2022-11-18T14:05:02.909Z,3.55
2022-11-18T14:08:02.331Z,2.87
2022-11-18T14:10:49.479Z,2.72
2022-11-18T14:13:39.730Z,2.85
2022-11-18T14:16:32.718Z,3.50
2022-11-18T14:19:33.812Z,6.35
2022-11-18T14:22:26.921Z,5.80
2022-11-18T14:25:19.931Z,4.53
2022-11-18T14:28:22.568Z,5.25
2022-11-18T14:31:21.817Z,4.08
2022-11-18T14:34:27.301Z,2.60
2022-11-18T14:37:15.800Z,3.15
2022-11-18T14:40:03.106Z,6.00
2022-11-18T14:42:50.524Z,5.58
2022-11-18T14:45:38.682Z,5.97
2022-11-18T14:48:32.312Z,10.32
2022-11-18T14:51:17.811Z,1.72
2022-11-18T14:54:04.922Z,3.65
2022-11-18T14:56:53.984Z,3.17
2022-11-18T14:59:41.295Z,4.03
2022-11-18T15:02:28.587Z,4.12
2022-11-18T15:05:15.708Z,1.50
2022-11-18T15:08:03.532Z,4.33
2022-11-18T15:10:50.871Z,5.28
2022-11-18T15:13:39.171Z,4.72
2022-11-18T15:16:29.472Z,2.83
2022-11-18T15:19:16.938Z,5.80
2022-11-18T15:22:04.170Z,9.28
2022-11-18T15:24:51.759Z,15.25
2022-11-18T15:27:39.144Z,9.10
2022-11-18T15:30:26.515Z,8.73
2022-11-18T15:33:13.921Z,6.87
2022-11-18T15:36:01.380Z,11.05
2022-11-18T15:38:49.669Z,4.90
2022-11-18T15:41:38.196Z,3.75
2022-11-18T15:44:25.373Z,3.10
2022-11-18T15:47:12.844Z,4.45
2022-11-18T15:50:00.346Z,4.12
2022-11-18T15:52:47.355Z,4.20
2022-11-18T15:55:35.029Z,5.95
2022-11-18T15:58:22.313Z,9.00
2022-11-18T16:01:09.573Z,2.47
2022-11-18T16:03:57.326Z,5.20
2022-11-18T16:06:44.795Z,5.03
2022-11-18T16:09:50.253Z,8.78
2022-11-18T16:12:46.700Z,9.03
2022-11-18T16:15:44.610Z,5.70
2022-11-18T16:18:33.477Z,9.10
2022-11-18T16:21:20.771Z,8.15
2022-11-18T16:24:10.943Z,9.38
2022-11-18T16:26:58.770Z,4.17
2022-11-18T16:29:46.139Z,9.08
2022-11-18T16:32:33.625Z,8.40
2022-11-18T16:35:20.759Z,5.53
2022-11-18T16:38:09.665Z,9.98
2022-11-18T16:40:57.903Z,12.85
2022-11-18T16:43:45.398Z,4.42
2022-11-18T16:46:34.502Z,7.35
2022-11-18T16:49:23.857Z,6.75
2022-11-18T16:52:11.200Z,5.47
2022-11-18T16:54:58.638Z,11.12
2022-11-18T16:57:46.026Z,15.93
2022-11-18T17:01:09.087Z,10.72
2022-11-18T17:03:22.266Z,7.75
2022-11-18T17:06:10.479Z,7.42
2022-11-18T17:08:58.838Z,6.87
2022-11-18T17:11:46.311Z,6.70
2022-11-18T17:14:33.958Z,12.63
2022-11-18T17:17:21.278Z,8.65
2022-11-18T17:20:08.390Z,7.65
2022-11-18T17:22:55.517Z,8.83
2022-11-18T17:25:43.550Z,11.20
2022-11-18T17:28:32.264Z,12.28
2022-11-18T17:31:21.748Z,13.38
2022-11-18T17:34:12.074Z,9.35
2022-11-18T17:37:04.779Z,12.85
2022-11-18T17:39:48.111Z,13.60
2022-11-18T17:42:35.622Z,7.87
2022-11-18T17:45:22.744Z,7.10
2022-11-18T17:48:09.757Z,8.43
2022-11-18T17:51:06.044Z,11.40
2022-11-18T17:53:53.599Z,15.90
2022-11-18T17:56:41.255Z,11.97
2022-11-18T17:59:28.569Z,10.43
2022-11-18T18:02:16.023Z,10.20
2022-11-18T18:05:03.829Z,11.85
2022-11-18T18:07:51.276Z,12.40
2022-11-18T18:10:41.542Z,12.30
2022-11-18T18:13:46.917Z,12.33
2022-11-18T18:16:34.754Z,15.13
2022-11-18T18:19:24.030Z,11.85
2022-11-18T18:22:11.243Z,15.60
2022-11-18T18:24:58.361Z,11.48
2022-11-18T18:27:45.779Z,10.48
2022-11-18T18:30:33.175Z,13.68
2022-11-18T18:33:20.601Z,9.93
2022-11-18T18:36:09.488Z,11.28
2022-11-18T18:38:58.928Z,10.13
2022-11-18T18:41:46.152Z,14.00
2022-11-18T18:44:50.976Z,12.68
2022-11-18T18:47:38.265Z,16.35
2022-11-18T18:50:29.635Z,16.20
2022-11-18T18:53:14.568Z,14.83
2022-11-18T18:56:02.046Z,13.22
2022-11-18T18:58:49.670Z,16.02
2022-11-18T19:01:37.633Z,18.40
2022-11-18T19:04:24.600Z,20.00
2022-11-18T19:07:11.940Z,11.90
2022-11-18T19:09:59.370Z,15.28
2022-11-18T19:12:48.182Z,11.93
2022-11-18T19:15:36.200Z,17.17
2022-11-18T19:18:24.233Z,17.65
2022-11-18T19:21:12.052Z,15.05
2022-11-18T19:23:59.317Z,19.02
2022-11-18T19:26:47.287Z,18.82
2022-11-18T19:29:34.412Z,14.75
2022-11-18T19:32:21.763Z,17.42
2022-11-18T19:35:10.281Z,16.23
2022-11-18T19:37:57.781Z,15.28
2022-11-18T19:40:45.225Z,13.85
2022-11-18T19:43:32.962Z,15.10
2022-11-18T19:46:20.357Z,9.23
2022-11-18T19:49:07.459Z,13.58
2022-11-18T19:51:54.559Z,11.35
2022-11-18T19:54:42.368Z,9.68
2022-11-18T19:57:29.852Z,10.63
2022-11-18T20:00:18.204Z,14.18
2022-11-18T20:03:06.057Z,14.78
2022-11-18T20:05:53.592Z,20.20
2022-11-18T20:08:41.681Z,14.18
2022-11-18T20:11:28.602Z,14.68
2022-11-18T20:14:15.769Z,13.85
2022-11-18T20:17:02.997Z,13.30
2022-11-18T20:19:50.126Z,15.00
2022-11-18T20:22:37.485Z,13.62
2022-11-18T20:25:24.508Z,11.90
2022-11-18T20:28:13.391Z,9.28
2022-11-18T20:31:00.838Z,11.25
2022-11-18T20:33:50.831Z,12.82
2022-11-18T20:36:37.983Z,10.05
2022-11-18T20:39:25.623Z,9.15
2022-11-18T20:42:31.014Z,14.75
2022-11-18T20:45:18.104Z,11.95
2022-11-18T20:48:05.636Z,14.18
2022-11-18T20:50:52.847Z,15.68
2022-11-18T20:53:42.385Z,13.62
2022-11-18T20:56:29.792Z,17.12
2022-11-18T20:59:17.549Z,13.75
2022-11-18T21:02:05.065Z,13.70
2022-11-18T21:04:51.875Z,13.03
2022-11-18T21:07:39.028Z,15.55
2022-11-18T21:10:26.320Z,15.65
2022-11-18T21:13:31.458Z,13.48
2022-11-18T21:16:19.657Z,14.28
2022-11-18T21:19:06.686Z,14.43
2022-11-18T21:21:55.079Z,12.95
2022-11-18T21:24:42.412Z,13.50
2022-11-18T21:27:29.526Z,11.83
2022-11-18T21:30:18.713Z,13.98
2022-11-18T21:33:06.092Z,14.55
2022-11-18T21:35:53.424Z,11.28
2022-11-18T21:38:40.680Z,11.70
2022-11-18T21:41:29.580Z,11.83
2022-11-18T21:44:17.406Z,14.33
2022-11-18T21:47:04.770Z,12.28
2022-11-18T21:49:52.167Z,12.25
2022-11-18T21:52:39.687Z,9.58
2022-11-18T21:55:27.281Z,11.68
2022-11-18T21:58:14.491Z,11.38
2022-11-18T22:01:14.252Z,10.45
2022-11-18T22:04:03.447Z,8.95
2022-11-18T22:06:50.542Z,13.30
2022-11-18T22:09:38.021Z,14.30
2022-11-18T22:12:25.530Z,13.18
2022-11-18T22:15:12.626Z,14.90
2022-11-18T22:18:00.018Z,12.10
2022-11-18T22:20:47.537Z,12.93
2022-11-18T22:23:35.351Z,13.72
2022-11-18T22:26:22.735Z,16.12
2022-11-18T22:29:10.181Z,15.13
2022-11-18T22:31:57.654Z,13.65
2022-11-18T22:34:49.218Z,15.78
2022-11-18T22:37:33.972Z,14.60
2022-11-18T22:40:21.443Z,18.05
2022-11-18T22:43:09.033Z,16.48
2022-11-18T22:46:08.298Z,19.65
2022-11-18T22:48:57.629Z,13.45
2022-11-18T22:51:44.931Z,14.10
2022-11-18T22:54:40.515Z,12.95
2022-11-18T22:57:21.588Z,14.30
2022-11-18T23:00:10.108Z,12.47
2022-11-18T23:02:57.180Z,10.78
2022-11-18T23:05:46.824Z,6.62
2022-11-18T23:08:36.693Z,6.15
2022-11-18T23:11:42.072Z,5.85
2022-11-18T23:14:29.220Z,4.45
2022-11-18T23:17:16.710Z,5.42
2022-11-18T23:20:03.718Z,5.25
2022-11-18T23:22:51.021Z,5.50
2022-11-18T23:25:38.483Z,4.22
2022-11-18T23:28:26.092Z,4.67
2022-11-18T23:31:16.375Z,5.35
2022-11-18T23:34:03.553Z,5.35
2022-11-18T23:36:50.991Z,5.03
2022-11-18T23:39:38.989Z,5.42
2022-11-18T23:42:26.144Z,5.70
2022-11-18T23:45:13.245Z,5.58
2022-11-18T23:48:00.545Z,6.40
2022-11-18T23:51:02.792Z,6.08
2022-11-18T23:53:55.231Z,6.47
2022-11-18T23:56:42.635Z,6.47
2022-11-18T23:59:30.054Z,8.95
